Time;durP1;ratioP1;P1;durP2;ratioP2;P2;SDS_P1;SDS_P2;PMS_P1;PMS_P2;Temp;Humidity;BMP_temperature;BMP_pressure;BME280_temperature;BME280_humidity;BME280_pressure;Samples;Min_cycle;Max_cycle;Signal;HPM_P1;HPM_P2
2022/10/04 00:01:46;;;;;;;4.73;4.40;;;21.90;43.30;;;;;;5012199;28;21000;-88
2022/10/04 00:04:22;;;;;;;4.20;3.90;;;21.90;43.30;;;;;;4980602;28;21190;-87
2022/10/04 00:07:04;;;;;;;4.17;3.90;;;21.90;43.50;;;;;;5000387;28;20475;-88
2022/10/04 00:09:44;;;;;;;3.90;3.70;;;21.90;43.30;;;;;;5017254;28;20456;-88
2022/10/04 00:12:39;;;;;;;4.10;3.87;;;21.90;43.30;;;;;;5016203;28;20463;-88
2022/10/04 00:15:17;;;;;;;3.90;3.70;;;21.90;43.40;;;;;;5013048;28;20496;-88
2022/10/04 00:17:43;;;;;;;3.87;3.67;;;21.90;43.40;;;;;;5014189;28;20459;-88
2022/10/04 00:20:49;;;;;;;3.70;3.50;;;21.90;43.40;;;;;;5011532;28;21065;-88
2022/10/04 00:23:27;;;;;;;4.10;3.80;;;21.90;43.30;;;;;;4955406;28;20691;-88
2022/10/04 00:25:58;;;;;;;4.17;3.77;;;21.90;43.40;;;;;;4970108;28;20524;-87
2022/10/04 00:28:23;;;;;;;3.67;3.47;;;21.90;43.40;;;;;;4987499;28;20472;-87
2022/10/04 00:31:17;;;;;;;3.53;3.30;;;21.90;43.40;;;;;;5015549;28;20476;-87
2022/10/04 00:33:47;;;;;;;4.23;3.93;;;21.90;43.40;;;;;;5011375;28;20269;-87
2022/10/04 00:36:25;;;;;;;3.60;3.40;;;21.90;43.40;;;;;;5010736;28;20468;-87
2022/10/04 00:39:05;;;;;;;3.30;3.00;;;21.90;43.40;;;;;;5011254;28;20467;-87
2022/10/04 00:41:41;;;;;;;4.00;3.70;;;21.90;43.50;;;;;;5011478;28;20467;-87
2022/10/04 00:44:16;;;;;;;3.87;3.67;;;21.90;43.30;;;;;;5010625;28;20495;-88
2022/10/04 00:46:43;;;;;;;3.30;3.10;;;21.90;43.40;;;;;;5005005;28;20471;-89
2022/10/04 00:49:12;;;;;;;4.30;4.10;;;21.90;43.50;;;;;;5004544;28;20457;-88
2022/10/04 00:51:59;;;;;;;3.13;2.93;;;21.90;43.40;;;;;;5008086;28;20546;-88
2022/10/04 00:54:45;;;;;;;3.67;3.47;;;21.90;43.40;;;;;;5008451;28;20448;-87
2022/10/04 00:57:16;;;;;;;3.40;3.20;;;21.90;43.30;;;;;;5001199;28;20819;-88
2022/10/04 00:59:44;;;;;;;3.87;3.57;;;21.90;43.40;;;;;;4993284;28;20514;-88
2022/10/04 01:02:20;;;;;;;3.20;3.00;;;21.90;43.40;;;;;;5001652;28;20471;-88
2022/10/04 01:04:56;;;;;;;3.50;3.30;;;21.90;43.40;;;;;;4996413;28;20546;-87
2022/10/04 01:07:36;;;;;;;4.27;4.07;;;21.90;43.40;;;;;;5005177;28;20451;-88
2022/10/04 01:10:10;;;;;;;3.93;3.67;;;21.90;43.30;;;;;;5006613;28;20515;-88
2022/10/04 01:12:53;;;;;;;4.00;3.70;;;21.90;43.50;;;;;;4998954;28;20644;-88
2022/10/04 01:15:46;;;;;;;3.63;3.40;;;21.90;43.40;;;;;;5007539;28;20480;-89
2022/10/04 01:18:26;;;;;;;3.67;3.47;;;21.90;43.40;;;;;;5023316;28;20448;-89
2022/10/04 01:20:59;;;;;;;3.40;3.20;;;21.90;43.50;;;;;;5014924;28;21438;-88
2022/10/04 01:23:33;;;;;;;3.60;3.40;;;21.90;43.40;;;;;;4985338;28;20483;-88
2022/10/04 01:25:59;;;;;;;3.60;3.40;;;21.90;43.40;;;;;;5005175;28;20529;-89
2022/10/04 01:28:25;;;;;;;3.27;3.07;;;21.90;43.50;;;;;;5010592;28;20463;-87
2022/10/04 01:30:51;;;;;;;3.30;3.10;;;21.90;43.50;;;;;;4999764;28;20234;-87
2022/10/04 01:33:18;;;;;;;3.50;3.30;;;21.90;43.50;;;;;;4997143;28;20440;-89
2022/10/04 01:35:43;;;;;;;4.10;3.80;;;21.90;43.30;;;;;;5005663;28;21044;-89
2022/10/04 01:38:11;;;;;;;3.33;3.13;;;21.90;44.20;;;;;;5002249;28;20459;-88
2022/10/04 01:40:56;;;;;;;3.07;2.80;;;21.90;43.40;;;;;;5056528;22;20249;-95
2022/10/04 01:43:28;;;;;;;3.30;3.10;;;21.90;43.30;;;;;;4990219;28;20462;-95
2022/10/04 01:46:01;;;;;;;3.20;3.00;;;21.90;43.30;;;;;;4995141;28;20478;-94
2022/10/04 01:48:31;;;;;;;3.27;3.07;;;21.90;43.30;;;;;;4987216;28;20488;-94
2022/10/04 01:51:04;;;;;;;2.97;2.77;;;21.90;43.30;;;;;;4995903;28;20477;-94
2022/10/04 01:53:33;;;;;;;3.57;3.37;;;21.90;43.40;;;;;;4998515;28;20563;-95
2022/10/04 01:56:12;;;;;;;3.40;3.20;;;21.90;43.30;;;;;;4998313;28;20583;-95
2022/10/04 01:58:47;;;;;;;3.50;3.30;;;21.90;43.30;;;;;;4993709;28;20461;-93
2022/10/04 02:01:26;;;;;;;3.97;3.73;;;21.90;43.30;;;;;;4998914;28;22681;-95
2022/10/04 02:03:59;;;;;;;3.40;3.20;;;21.90;43.40;;;;;;4961416;28;20963;-95
2022/10/04 02:06:24;;;;;;;4.00;3.13;;;21.90;43.30;;;;;;4999114;28;20501;-94
2022/10/04 02:08:56;;;;;;;3.20;2.80;;;21.90;43.30;;;;;;4986501;28;20533;-94
2022/10/04 02:11:23;;;;;;;3.80;3.60;;;21.90;43.40;;;;;;4979736;28;20243;-96
2022/10/04 02:13:53;;;;;;;3.10;2.90;;;21.90;43.30;;;;;;4999049;28;20446;-95
2022/10/04 02:16:21;;;;;;;3.50;3.30;;;21.90;43.30;;;;;;4983886;28;20480;-95
2022/10/04 02:18:49;;;;;;;4.10;3.40;;;21.90;43.40;;;;;;4997145;28;20976;-95
2022/10/04 02:21:18;;;;;;;3.30;3.10;;;21.90;43.40;;;;;;4984495;28;20453;-93
2022/10/04 02:23:44;;;;;;;2.87;2.77;;;21.90;43.30;;;;;;4994794;28;20528;-93
2022/10/04 02:26:11;;;;;;;3.60;3.30;;;21.90;43.40;;;;;;4977998;28;20488;-95
2022/10/04 02:28:37;;;;;;;3.30;3.10;;;21.90;43.40;;;;;;4994380;28;20492;-94
2022/10/04 02:33:51;;;;;;;3.67;3.37;;;21.90;43.30;;;;;;4998872;28;20457;-94
2022/10/04 02:36:18;;;;;;;3.43;3.23;;;21.90;43.40;;;;;;4984450;28;20466;-94
2022/10/04 02:38:54;;;;;;;2.80;2.60;;;21.90;43.40;;;;;;4986704;28;20448;-92
2022/10/04 02:41:31;;;;;;;3.10;2.90;;;21.90;43.30;;;;;;4976873;28;20470;-92
2022/10/04 02:44:25;;;;;;;3.20;3.00;;;21.90;43.30;;;;;;4994517;28;20456;-94
2022/10/04 02:47:06;;;;;;;3.00;2.80;;;21.90;43.40;;;;;;4990098;28;20465;-93
2022/10/04 02:49:36;;;;;;;2.90;2.77;;;21.90;43.50;;;;;;4992530;28;20550;-93
2022/10/04 02:52:06;;;;;;;2.80;2.57;;;21.90;43.30;;;;;;5002153;28;20468;-94
2022/10/04 02:54:44;;;;;;;3.13;2.93;;;21.90;43.30;;;;;;4982339;28;20473;-94
2022/10/04 02:57:15;;;;;;;2.90;2.60;;;21.90;43.40;;;;;;4983801;28;20623;-94
2022/10/04 02:59:41;;;;;;;2.60;2.50;;;21.90;43.30;;;;;;4997955;28;20469;-93
2022/10/04 03:02:25;;;;;;;3.40;3.20;;;21.90;43.30;;;;;;4985614;28;20465;-94
2022/10/04 03:04:54;;;;;;;3.10;2.90;;;21.90;43.30;;;;;;4981701;28;20227;-94
2022/10/04 03:07:21;;;;;;;3.00;2.80;;;21.90;43.30;;;;;;4996740;28;20461;-94
2022/10/04 03:09:46;;;;;;;2.70;2.50;;;21.90;43.30;;;;;;4980057;28;20471;-94
2022/10/04 03:12:13;;;;;;;3.20;3.00;;;21.90;43.30;;;;;;4999334;28;20813;-95
2022/10/04 03:14:39;;;;;;;3.03;2.83;;;21.90;43.30;;;;;;4980672;28;20219;-93
2022/10/04 03:17:06;;;;;;;3.30;3.10;;;21.90;43.30;;;;;;4985016;28;20456;-95
2022/10/04 03:19:33;;;;;;;3.20;3.00;;;21.90;43.40;;;;;;4995817;28;20246;-94
2022/10/04 03:22:02;;;;;;;2.97;2.77;;;21.90;43.30;;;;;;4979602;28;20477;-94
2022/10/04 03:24:30;;;;;;;3.77;3.57;;;21.90;43.30;;;;;;4991437;28;20556;-92
2022/10/04 03:26:59;;;;;;;3.00;2.80;;;21.90;43.30;;;;;;4982090;28;20477;-95
2022/10/04 03:29:29;;;;;;;3.90;3.60;;;21.90;43.30;;;;;;4980403;28;20814;-94
2022/10/04 03:31:59;;;;;;;3.63;3.30;;;21.90;43.30;;;;;;4984208;28;20895;-94
2022/10/04 03:34:30;;;;;;;3.43;3.10;;;21.90;43.30;;;;;;4983590;28;20452;-93
2022/10/04 03:36:58;;;;;;;2.70;2.60;;;21.90;43.30;;;;;;5003842;28;20480;-94
2022/10/04 03:39:33;;;;;;;2.90;2.80;;;21.90;43.30;;;;;;4995430;28;20461;-93
2022/10/04 03:42:15;;;;;;;3.00;2.80;;;21.90;43.30;;;;;;4981949;28;20457;-94
2022/10/04 03:44:43;;;;;;;3.00;2.80;;;21.90;43.30;;;;;;4995237;28;20479;-94
2022/10/04 03:47:13;;;;;;;3.30;3.10;;;21.90;43.30;;;;;;4982473;28;20457;-94
2022/10/04 03:49:40;;;;;;;2.80;2.60;;;21.90;43.30;;;;;;4981841;28;20450;-93
2022/10/04 03:52:13;;;;;;;3.00;2.80;;;21.90;43.30;;;;;;4978914;28;20504;-92
2022/10/04 03:54:39;;;;;;;2.87;2.70;;;21.90;43.30;;;;;;4994233;28;20496;-94
2022/10/04 03:57:05;;;;;;;3.10;2.90;;;21.90;43.30;;;;;;4981644;28;20477;-93
2022/10/04 03:59:33;;;;;;;2.80;2.60;;;21.90;43.30;;;;;;4979246;28;20500;-94
2022/10/04 04:02:32;;;;;;;3.00;2.70;;;21.90;43.30;;;;;;4978763;28;20462;-94
2022/10/04 04:05:20;;;;;;;3.10;2.90;;;21.90;43.30;;;;;;4995406;28;20461;-94
2022/10/04 04:07:53;;;;;;;3.30;3.10;;;21.90;43.30;;;;;;4992360;28;20461;-94
2022/10/04 04:10:31;;;;;;;2.97;2.80;;;21.80;43.20;;;;;;4997244;28;20463;-94
2022/10/04 04:13:05;;;;;;;2.73;2.63;;;21.90;43.30;;;;;;4991287;28;20473;-93
2022/10/04 04:15:32;;;;;;;2.90;2.70;;;21.80;43.30;;;;;;4993417;28;20511;-94
2022/10/04 04:18:12;;;;;;;2.57;2.47;;;21.80;43.30;;;;;;4982503;28;20469;-92
2022/10/04 04:20:39;;;;;;;3.57;3.37;;;21.80;43.20;;;;;;4979810;28;20460;-93
2022/10/04 04:23:14;;;;;;;2.93;2.73;;;21.80;43.30;;;;;;4996297;28;20445;-94
2022/10/04 04:25:43;;;;;;;5.60;3.33;;;21.80;43.30;;;;;;4993318;28;20721;-95
2022/10/04 04:28:37;;;;;;;3.40;3.20;;;21.90;43.30;;;;;;4999206;28;20507;-94
2022/10/04 04:31:17;;;;;;;2.83;2.63;;;21.90;43.30;;;;;;4996125;28;20477;-94
2022/10/04 04:34:01;;;;;;;3.20;3.00;;;21.90;43.30;;;;;;4988502;28;20999;-94
2022/10/04 04:36:39;;;;;;;2.80;2.60;;;21.90;43.30;;;;;;4969149;28;20464;-93
2022/10/04 04:41:57;;;;;;;3.40;3.20;;;21.80;43.20;;;;;;4997239;28;20485;-92
2022/10/04 04:44:23;;;;;;;3.20;3.00;;;21.90;43.30;;;;;;4994087;28;20449;-93
2022/10/04 04:46:49;;;;;;;2.63;2.53;;;21.80;43.20;;;;;;4974770;28;20274;-95
2022/10/04 04:49:17;;;;;;;2.63;2.53;;;21.90;43.30;;;;;;4979182;28;20464;-92
2022/10/04 04:51:50;;;;;;;3.03;2.83;;;21.90;44.10;;;;;;4992871;28;20238;-91
2022/10/04 04:54:22;;;;;;;3.20;3.00;;;21.90;43.20;;;;;;4997439;28;20935;-91
2022/10/04 04:56:50;;;;;;;2.87;2.67;;;21.90;43.30;;;;;;4993088;28;20464;-91
2022/10/04 04:59:16;;;;;;;3.07;2.87;;;21.90;43.30;;;;;;4996154;28;20456;-91
2022/10/04 05:01:45;;;;;;;2.80;2.60;;;21.90;43.20;;;;;;4992067;28;20468;-91
2022/10/04 05:04:14;;;;;;;3.00;2.80;;;21.90;43.20;;;;;;4967840;28;20541;-90
2022/10/04 05:06:44;;;;;;;2.83;2.63;;;21.90;43.20;;;;;;4989310;28;20623;-90
2022/10/04 05:09:32;;;;;;;2.60;2.50;;;21.90;43.20;;;;;;4979532;28;20556;-92
2022/10/04 05:12:15;;;;;;;3.00;2.80;;;21.90;43.20;;;;;;4996291;28;20995;-88
2022/10/04 05:14:51;;;;;;;2.80;2.60;;;21.90;43.20;;;;;;4991994;28;20565;-88
2022/10/04 05:17:32;;;;;;;2.87;2.67;;;21.90;43.20;;;;;;4994778;28;20468;-90
2022/10/04 05:20:00;;;;;;;2.63;2.53;;;21.90;43.10;;;;;;4971338;28;20495;-90
2022/10/04 05:22:27;;;;;;;2.50;2.40;;;21.90;43.20;;;;;;4975335;28;20454;-91
2022/10/04 05:25:06;;;;;;;3.17;2.87;;;21.90;43.20;;;;;;4984793;28;20466;-90
2022/10/04 05:27:37;;;;;;;2.60;2.50;;;21.90;43.20;;;;;;4983458;28;20468;-91
2022/10/04 05:30:05;;;;;;;2.40;2.30;;;21.90;43.10;;;;;;4989618;28;20488;-90
2022/10/04 05:32:47;;;;;;;3.27;3.07;;;21.90;43.10;;;;;;4985346;28;20465;-90
2022/10/04 05:35:18;;;;;;;3.10;2.97;;;21.90;43.10;;;;;;4973058;28;20805;-90
2022/10/04 05:38:08;;;;;;;3.10;2.90;;;21.90;43.10;;;;;;4989712;28;20457;-90
2022/10/04 05:40:55;;;;;;;2.90;2.70;;;21.90;43.10;;;;;;4995270;28;20462;-91
2022/10/04 05:43:42;;;;;;;2.93;2.73;;;21.90;43.10;;;;;;4975842;28;20544;-90
2022/10/04 05:46:19;;;;;;;3.00;2.80;;;21.90;43.20;;;;;;4965136;28;20456;-91
2022/10/04 05:48:50;;;;;;;3.07;2.87;;;21.90;43.10;;;;;;4991661;28;20462;-93
2022/10/04 05:51:20;;;;;;;3.07;2.87;;;21.90;43.10;;;;;;4984421;28;20477;-93
2022/10/04 05:53:46;;;;;;;2.33;2.20;;;21.90;43.10;;;;;;4996660;28;20539;-95
2022/10/04 05:56:18;;;;;;;2.90;2.70;;;21.90;43.10;;;;;;4983272;28;20473;-93
2022/10/04 05:59:09;;;;;;;3.43;3.17;;;21.90;43.10;;;;;;4988354;28;20461;-93
2022/10/04 06:01:47;;;;;;;2.93;2.83;;;21.90;43.10;;;;;;4976589;28;20512;-92
2022/10/04 06:04:41;;;;;;;2.90;2.60;;;21.90;43.10;;;;;;4998870;28;20972;-93
2022/10/04 06:07:33;;;;;;;2.50;2.40;;;21.90;43.10;;;;;;4971132;28;20460;-93
2022/10/04 06:10:24;;;;;;;3.30;3.10;;;21.90;43.10;;;;;;5003367;28;20977;-92
2022/10/04 06:12:54;;;;;;;2.83;2.70;;;21.90;43.10;;;;;;5005410;28;20476;-93
2022/10/04 06:15:58;;;;;;;3.00;2.80;;;21.90;43.10;;;;;;5007241;28;20544;-94
2022/10/04 06:18:32;;;;;;;3.30;2.90;;;21.90;43.10;;;;;;4999555;28;20507;-93
2022/10/04 06:21:29;;;;;;;3.37;3.17;;;21.90;43.10;;;;;;5000113;28;21014;-93
2022/10/04 06:24:13;;;;;;;2.63;2.43;;;21.90;43.10;;;;;;4998916;28;20504;-92
2022/10/04 06:26:46;;;;;;;2.73;2.53;;;21.90;43.10;;;;;;5001090;28;20468;-93
2022/10/04 06:29:19;;;;;;;3.00;2.80;;;21.90;43.10;;;;;;5003389;28;20469;-94
2022/10/04 06:32:03;;;;;;;2.47;2.27;;;21.90;43.10;;;;;;5002970;28;20541;-93
2022/10/04 06:34:35;;;;;;;2.97;2.77;;;21.90;43.10;;;;;;4988058;28;21368;-94
2022/10/04 06:37:25;;;;;;;2.63;2.53;;;21.90;43.10;;;;;;4988002;28;20489;-94
2022/10/04 06:40:21;;;;;;;2.63;2.50;;;21.90;43.10;;;;;;5002722;28;20481;-93
2022/10/04 06:43:09;;;;;;;2.57;2.37;;;21.90;43.10;;;;;;5000241;28;20927;-94
2022/10/04 06:46:00;;;;;;;3.00;2.80;;;21.90;43.10;;;;;;4975301;28;20486;-92
2022/10/04 06:48:38;;;;;;;2.93;2.70;;;21.90;43.20;;;;;;4989429;28;20476;-92
2022/10/04 06:51:22;;;;;;;2.70;2.50;;;21.90;43.10;;;;;;4997852;28;20502;-93
2022/10/04 06:53:57;;;;;;;2.57;2.37;;;21.90;43.10;;;;;;4999856;28;20502;-93
2022/10/04 06:56:55;;;;;;;2.70;2.60;;;21.90;43.10;;;;;;5001544;28;20478;-92
2022/10/04 06:59:26;;;;;;;2.70;2.50;;;21.90;43.10;;;;;;4982052;28;20943;-92
2022/10/04 07:01:59;;;;;;;2.50;2.30;;;21.90;43.10;;;;;;4994667;28;20473;-93
2022/10/04 07:04:41;;;;;;;2.23;2.13;;;21.90;43.10;;;;;;4999418;28;20523;-92
2022/10/04 07:07:37;;;;;;;3.10;2.90;;;21.90;43.10;;;;;;4991137;28;20458;-94
2022/10/04 07:10:17;;;;;;;2.33;2.23;;;21.90;43.10;;;;;;4994533;28;20473;-95
2022/10/04 07:12:51;;;;;;;2.80;2.60;;;21.90;43.10;;;;;;4981229;28;21027;-96
2022/10/04 07:15:23;;;;;;;2.77;2.57;;;21.90;43.10;;;;;;4998054;28;20490;-96
2022/10/04 07:17:53;;;;;;;2.30;2.20;;;21.90;43.10;;;;;;4995918;28;20866;-95
2022/10/04 07:20:28;;;;;;;2.40;2.20;;;21.90;43.10;;;;;;4983577;28;20453;-95
2022/10/04 07:22:59;;;;;;;2.83;2.63;;;21.90;43.20;;;;;;4985525;28;20815;-95
2022/10/04 07:25:47;;;;;;;2.37;2.23;;;21.90;43.10;;;;;;4975826;28;20457;-94
2022/10/04 07:31:11;;;;;;;2.87;2.67;;;21.90;43.10;;;;;;4997687;28;20801;-95
2022/10/04 07:33:51;;;;;;;2.80;2.43;;;21.90;43.10;;;;;;4986682;28;20568;-95
2022/10/04 07:36:29;;;;;;;3.10;2.83;;;21.90;43.10;;;;;;4994281;28;21081;-95
2022/10/04 07:39:12;;;;;;;2.70;2.47;;;21.90;43.10;;;;;;4969212;28;20813;-94
2022/10/04 07:41:44;;;;;;;2.37;2.27;;;21.90;43.10;;;;;;4999682;28;20541;-96
2022/10/04 07:44:34;;;;;;;2.70;2.50;;;21.90;43.10;;;;;;4985102;28;21108;-94
2022/10/04 07:47:13;;;;;;;3.00;2.80;;;21.90;43.10;;;;;;4982815;28;20461;-94
2022/10/04 07:49:39;;;;;;;5.73;2.47;;;21.90;43.10;;;;;;4977481;28;20479;-94
2022/10/04 07:52:51;;;;;;;3.27;2.40;;;21.90;43.10;;;;;;4987301;28;20475;-94
2022/10/04 07:55:40;;;;;;;2.47;2.37;;;21.90;43.10;;;;;;4961215;28;20494;-94
2022/10/04 07:58:17;;;;;;;2.37;2.27;;;21.90;43.10;;;;;;4980747;28;20467;-95
2022/10/04 08:00:59;;;;;;;4.00;2.83;;;21.90;43.10;;;;;;4993566;28;20468;-92
2022/10/04 08:03:47;;;;;;;2.30;2.20;;;21.90;43.00;;;;;;4960868;28;20472;-94
2022/10/04 08:06:15;;;;;;;2.80;2.60;;;21.90;43.10;;;;;;4977705;28;20484;-94
2022/10/04 08:09:09;;;;;;;2.60;2.50;;;21.90;43.10;;;;;;4985026;28;20969;-94
2022/10/04 08:11:48;;;;;;;2.87;2.67;;;21.90;43.10;;;;;;4996556;28;20477;-91
2022/10/04 08:14:21;;;;;;;2.57;2.17;;;21.90;43.10;;;;;;5003075;28;20564;-92
2022/10/04 08:17:12;;;;;;;2.50;2.40;;;21.90;43.10;;;;;;5002981;28;20469;-95
2022/10/04 08:19:52;;;;;;;2.60;2.10;;;21.90;43.10;;;;;;4946131;28;20464;-92
2022/10/04 08:22:27;;;;;;;2.10;2.00;;;21.90;43.00;;;;;;4980387;28;20472;-94
2022/10/04 08:25:20;;;;;;;3.20;2.50;;;21.90;43.10;;;;;;4997119;28;20448;-94
2022/10/04 08:31:23;;;;;;;2.40;2.20;;;21.90;43.20;;;;;;4987086;28;20459;-92
2022/10/04 08:34:08;;;;;;;2.97;2.63;;;21.90;43.00;;;;;;4997292;28;20473;-94
2022/10/04 08:36:42;;;;;;;2.70;2.50;;;21.90;43.10;;;;;;4990501;28;20476;-96
2022/10/04 08:39:38;;;;;;;4.87;3.03;;;21.90;43.10;;;;;;5002182;28;20857;-94
2022/10/04 08:42:23;;;;;;;7.10;2.80;;;21.90;43.10;;;;;;4991472;28;20469;-93
2022/10/04 08:45:00;;;;;;;2.50;2.30;;;21.90;43.10;;;;;;4965682;28;20464;-93
2022/10/04 08:47:49;;;;;;;3.30;2.50;;;22.00;43.20;;;;;;5000773;28;20547;-96
2022/10/04 08:51:01;;;;;;;4.37;2.87;;;21.90;43.00;;;;;;4992897;28;20454;-95
2022/10/04 08:53:49;;;;;;;2.70;2.50;;;21.90;43.00;;;;;;4992017;28;20475;-95
2022/10/04 08:56:39;;;;;;;2.73;2.53;;;21.90;43.10;;;;;;4991482;28;20536;-93
2022/10/04 08:59:31;;;;;;;2.40;2.20;;;21.90;43.00;;;;;;4974654;28;20472;-89
2022/10/04 09:02:37;;;;;;;2.50;2.30;;;21.90;43.00;;;;;;4996534;28;20468;-96
2022/10/04 09:05:21;;;;;;;2.53;2.33;;;21.90;43.00;;;;;;4981937;28;20524;-92
2022/10/04 09:08:06;;;;;;;8.13;2.80;;;21.90;43.00;;;;;;4995970;28;20465;-95
2022/10/04 09:11:05;;;;;;;2.90;2.47;;;21.90;43.10;;;;;;4978375;28;21342;-94
2022/10/04 09:13:43;;;;;;;2.80;2.60;;;22.00;43.20;;;;;;4984389;28;20488;-96
2022/10/04 09:16:18;;;;;;;5.40;2.83;;;22.00;43.10;;;;;;4998327;28;20493;-94
2022/10/04 09:19:10;;;;;;;3.60;2.73;;;22.00;43.10;;;;;;4972449;28;20497;-93
2022/10/04 09:24:30;;;;;;;2.50;2.30;;;22.00;43.00;;;;;;5036445;23;20539;-62
2022/10/04 09:27:05;;;;;;;11.27;3.50;;;22.00;43.00;;;;;;5047937;28;20466;-59
2022/10/04 09:30:02;;;;;;;6.97;2.70;;;22.00;43.10;;;;;;5043039;28;20519;-65
2022/10/04 09:32:37;;;;;;;4.30;2.70;;;22.10;43.20;;;;;;5039814;28;20467;-61
2022/10/04 09:35:16;;;;;;;5.50;2.93;;;22.00;43.10;;;;;;5045731;28;20469;-65
2022/10/04 09:38:19;;;;;;;9.13;2.97;;;22.00;43.00;;;;;;5045589;28;20985;-61
2022/10/04 09:41:05;;;;;;;3.63;2.43;;;22.00;43.10;;;;;;5039893;28;20461;-62
2022/10/04 09:44:07;;;;;;;2.70;2.50;;;22.00;43.00;;;;;;5043828;28;20451;-60
2022/10/04 09:46:47;;;;;;;6.80;2.43;;;22.00;43.10;;;;;;5039381;28;20451;-60
2022/10/04 09:50:00;;;;;;;2.90;2.70;;;22.00;43.10;;;;;;5043347;28;20478;-61
2022/10/04 09:52:44;;;;;;;9.53;3.60;;;22.00;43.10;;;;;;5035299;28;20473;-63
2022/10/04 09:55:16;;;;;;;4.30;2.63;;;22.00;43.10;;;;;;5044916;28;20458;-62
2022/10/04 09:57:52;;;;;;;5.73;2.53;;;22.00;43.10;;;;;;5051191;28;20553;-60
2022/10/04 10:00:27;;;;;;;2.50;2.30;;;22.00;43.10;;;;;;5045625;28;20453;-61
2022/10/04 10:03:11;;;;;;;5.37;2.53;;;22.10;43.20;;;;;;5044237;28;20465;-64
2022/10/04 10:05:48;;;;;;;4.73;2.73;;;22.00;43.00;;;;;;5043385;28;20466;-64
2022/10/04 10:08:57;;;;;;;5.97;3.23;;;22.00;43.00;;;;;;5040695;28;20949;-62
2022/10/04 10:15:15;;;;;;;2.57;2.47;;;22.00;43.10;;;;;;5036787;28;20570;-65
2022/10/04 10:18:07;;;;;;;3.13;2.80;;;22.00;43.10;;;;;;5041585;28;20560;-64
2022/10/04 10:20:33;;;;;;;3.50;3.20;;;22.00;43.00;;;;;;5038587;28;20467;-65
2022/10/04 10:23:05;;;;;;;6.43;2.60;;;22.00;43.10;;;;;;5041284;28;20477;-62
2022/10/04 10:25:49;;;;;;;2.57;2.37;;;22.10;43.10;;;;;;5039286;28;20222;-59
2022/10/04 10:28:37;;;;;;;2.70;2.50;;;22.10;43.10;;;;;;5039091;28;20459;-61
2022/10/04 10:31:22;;;;;;;2.70;2.60;;;22.10;43.10;;;;;;5045425;28;21021;-59
2022/10/04 10:34:33;;;;;;;2.77;2.47;;;22.10;43.20;;;;;;5036596;28;20534;-61
2022/10/04 10:37:08;;;;;;;3.03;2.83;;;22.10;43.10;;;;;;5042875;28;20466;-60
2022/10/04 10:39:55;;;;;;;2.90;2.60;;;22.10;43.10;;;;;;5044890;28;20553;-60
2022/10/04 10:42:29;;;;;;;2.77;2.57;;;22.10;43.10;;;;;;5043185;28;20582;-61
2022/10/04 10:45:22;;;;;;;2.80;2.60;;;22.10;43.10;;;;;;5045673;28;20454;-62
2022/10/04 10:47:58;;;;;;;4.37;2.57;;;22.10;43.90;;;;;;5043518;28;20485;-62
2022/10/04 10:50:30;;;;;;;3.90;2.90;;;22.10;43.10;;;;;;5044214;28;20557;-60
2022/10/04 10:53:14;;;;;;;3.40;3.20;;;22.10;43.10;;;;;;5043052;28;20473;-61
2022/10/04 10:56:22;;;;;;;4.00;2.93;;;22.10;43.10;;;;;;5045068;28;20470;-61
2022/10/04 10:59:25;;;;;;;3.10;2.77;;;22.10;43.10;;;;;;5039554;28;20447;-63
2022/10/04 11:02:19;;;;;;;2.73;2.53;;;22.10;43.10;;;;;;5041567;28;20446;-59
2022/10/04 11:05:30;;;;;;;3.33;3.03;;;22.10;43.20;;;;;;5042743;28;20462;-62
2022/10/04 11:08:30;;;;;;;3.13;2.93;;;22.10;43.20;;;;;;5041821;28;20811;-59
2022/10/04 11:11:32;;;;;;;2.30;2.20;;;22.10;43.20;;;;;;5044924;28;20466;-63
2022/10/04 11:14:19;;;;;;;2.97;2.70;;;22.10;43.20;;;;;;5041951;28;20470;-60
2022/10/04 11:17:12;;;;;;;8.73;3.07;;;22.10;43.20;;;;;;5045782;28;20490;-60
2022/10/04 11:19:40;;;;;;;4.90;2.57;;;22.10;43.20;;;;;;5040698;28;20798;-61
2022/10/04 11:22:44;;;;;;;9.23;3.30;;;22.10;43.20;;;;;;5046508;28;20470;-60
2022/10/04 11:25:33;;;;;;;10.93;3.43;;;22.10;43.20;;;;;;5039858;28;20549;-63
2022/10/04 11:28:19;;;;;;;13.87;3.13;;;22.10;43.20;;;;;;5038911;28;20478;-60
2022/10/04 11:31:03;;;;;;;7.80;3.30;;;22.10;44.00;;;;;;5041481;28;20474;-59
2022/10/04 11:33:54;;;;;;;4.50;2.73;;;22.10;43.20;;;;;;5044059;28;20463;-59
2022/10/04 11:36:44;;;;;;;4.00;3.10;;;22.10;43.30;;;;;;5045510;28;20463;-59
2022/10/04 11:39:23;;;;;;;3.10;2.83;;;22.10;43.30;;;;;;5041249;28;20471;-61
2022/10/04 11:42:16;;;;;;;7.73;4.60;;;22.10;43.30;;;;;;5041767;28;20485;-59
2022/10/04 11:45:07;;;;;;;3.33;3.13;;;22.10;43.30;;;;;;5040941;28;20475;-59
2022/10/04 11:47:48;;;;;;;14.03;2.77;;;22.10;43.30;;;;;;5044839;28;20466;-58
2022/10/04 11:50:25;;;;;;;4.37;3.27;;;22.10;43.50;;;;;;5041434;28;20589;-62
2022/10/04 11:53:27;;;;;;;3.20;2.90;;;22.10;43.40;;;;;;5042857;28;20877;-61
2022/10/04 11:56:11;;;;;;;6.80;3.20;;;22.10;43.40;;;;;;5042230;28;20477;-60
2022/10/04 11:58:55;;;;;;;6.10;2.60;;;22.10;43.50;;;;;;5039905;28;20479;-59
2022/10/04 12:01:30;;;;;;;5.27;2.97;;;22.00;43.30;;;;;;5042240;28;20820;-60
2022/10/04 12:04:02;;;;;;;3.73;3.20;;;22.00;43.40;;;;;;5039111;28;20783;-60
2022/10/04 12:07:07;;;;;;;3.07;2.70;;;22.10;43.50;;;;;;5041487;28;20518;-59
2022/10/04 12:09:48;;;;;;;3.70;2.70;;;22.00;43.50;;;;;;5036337;28;20726;-59
2022/10/04 12:12:46;;;;;;;5.07;2.80;;;22.00;43.50;;;;;;5041408;28;20549;-59
2022/10/04 12:15:29;;;;;;;3.50;3.20;;;22.00;43.40;;;;;;5041961;28;20471;-63
2022/10/04 12:18:27;;;;;;;3.10;2.80;;;22.00;43.50;;;;;;5042047;28;21104;-59
2022/10/04 12:21:20;;;;;;;2.90;2.70;;;22.00;43.50;;;;;;5044750;28;20485;-60
2022/10/04 12:24:08;;;;;;;4.50;2.70;;;22.00;43.50;;;;;;5036219;28;20468;-59
2022/10/04 12:26:53;;;;;;;4.50;2.90;;;22.00;43.50;;;;;;5037918;28;20467;-62
2022/10/04 12:29:44;;;;;;;3.23;2.60;;;22.00;43.50;;;;;;5037822;28;20447;-60
2022/10/04 12:32:23;;;;;;;2.80;2.60;;;22.00;43.50;;;;;;5037471;28;20471;-59
2022/10/04 12:35:07;;;;;;;4.17;2.70;;;22.00;43.50;;;;;;5041519;28;20473;-65
2022/10/04 12:38:07;;;;;;;6.50;2.53;;;22.00;43.50;;;;;;5036828;28;20537;-60
2022/10/04 12:40:51;;;;;;;2.80;2.57;;;22.00;43.50;;;;;;5039351;28;20554;-61
2022/10/04 12:43:50;;;;;;;5.80;2.90;;;22.00;43.50;;;;;;5038154;28;20462;-65
2022/10/04 12:46:51;;;;;;;3.30;2.93;;;22.00;43.50;;;;;;5040584;28;20468;-59
2022/10/04 12:49:38;;;;;;;3.80;2.73;;;22.00;43.50;;;;;;5037687;28;20497;-59
2022/10/04 12:52:15;;;;;;;3.40;2.80;;;22.00;43.50;;;;;;5039450;28;20906;-60
2022/10/04 12:55:09;;;;;;;2.97;2.63;;;22.00;43.50;;;;;;5042859;28;20855;-62
2022/10/04 12:57:59;;;;;;;2.53;2.33;;;22.00;43.50;;;;;;5037607;28;20475;-59
2022/10/04 13:00:30;;;;;;;2.70;2.47;;;22.00;43.50;;;;;;5042129;28;20455;-63
2022/10/04 13:03:20;;;;;;;3.00;2.80;;;22.00;43.50;;;;;;5040088;28;20470;-59
2022/10/04 13:05:46;;;;;;;2.53;2.33;;;22.00;43.50;;;;;;5037554;28;20453;-60
2022/10/04 13:08:55;;;;;;;5.20;2.57;;;22.00;43.60;;;;;;5039930;28;20463;-60
2022/10/04 13:11:30;;;;;;;2.70;2.50;;;22.00;43.50;;;;;;5026825;28;20327;-65
2022/10/04 13:14:37;;;;;;;2.83;2.40;;;22.00;43.50;;;;;;5038974;28;20458;-60
2022/10/04 13:17:14;;;;;;;4.27;3.10;;;22.00;43.60;;;;;;5036789;28;20561;-63
2022/10/04 13:20:13;;;;;;;2.50;2.30;;;22.00;43.60;;;;;;5020898;28;22050;-59
2022/10/04 13:22:59;;;;;;;2.87;2.63;;;22.00;44.30;;;;;;5038641;28;20553;-63
2022/10/04 13:25:51;;;;;;;2.77;2.57;;;22.00;43.50;;;;;;5026917;28;20455;-63
2022/10/04 13:28:30;;;;;;;3.00;2.80;;;22.00;43.60;;;;;;5012854;28;20447;-63
2022/10/04 13:31:06;;;;;;;3.37;2.80;;;21.90;43.50;;;;;;5039158;28;20964;-59
2022/10/04 13:33:47;;;;;;;2.73;2.53;;;22.00;43.60;;;;;;5039022;28;20486;-59
2022/10/04 13:36:24;;;;;;;2.90;2.70;;;22.00;43.60;;;;;;5042408;28;20482;-59
2022/10/04 13:39:27;;;;;;;2.83;2.60;;;22.00;43.50;;;;;;5038960;28;20966;-61
2022/10/04 13:42:15;;;;;;;3.17;2.97;;;22.00;43.50;;;;;;5042652;28;21050;-60
2022/10/04 13:44:53;;;;;;;3.43;2.87;;;22.00;43.60;;;;;;5036167;28;20457;-64
2022/10/04 13:47:36;;;;;;;3.20;3.00;;;22.00;43.60;;;;;;5040957;28;20465;-59
2022/10/04 13:50:24;;;;;;;4.23;2.67;;;22.00;43.60;;;;;;5034682;28;20451;-59
2022/10/04 13:56:36;;;;;;;2.70;2.50;;;22.00;44.30;;;;;;5039341;28;20481;-66
2022/10/04 13:59:23;;;;;;;2.40;2.30;;;22.00;43.60;;;;;;5035715;28;20549;-58
2022/10/04 14:02:25;;;;;;;2.80;2.60;;;21.90;43.50;;;;;;5032238;28;20460;-61
2022/10/04 14:05:36;;;;;;;2.57;2.47;;;21.90;43.50;;;;;;5039365;28;20563;-63
2022/10/04 14:08:39;;;;;;;2.33;2.20;;;21.90;43.50;;;;;;5031692;28;21029;-59
2022/10/04 14:11:46;;;;;;;3.20;2.30;;;21.90;43.50;;;;;;5035809;28;20570;-59
2022/10/04 14:15:08;;;;;;;3.87;3.57;;;21.90;43.50;;;;;;5035461;28;20924;-59
2022/10/04 14:18:04;;;;;;;2.20;2.10;;;21.90;43.50;;;;;;5003290;28;20486;-58